Time;durP1;ratioP1;P1;durP2;ratioP2;P2;SDS_P1;SDS_P2;PMS_P1;PMS_P2;Temp;Humidity;BMP_temperature;BMP_pressure;BME280_temperature;BME280_humidity;BME280_pressure;Samples;Min_cycle;Max_cycle;Signal;HPM_P1;HPM_P2
2023/07/10 00:01:27;;;;;;;17.20;15.20;;;18.90;99.90;;;;;;4944947;28;90424;-36
2023/07/10 00:03:53;;;;;;;22.40;18.13;;;18.90;99.90;;;;;;4949550;28;90078;-38
2023/07/10 00:06:19;;;;;;;22.65;17.50;;;18.90;99.90;;;;;;4940064;28;87625;-33
2023/07/10 00:08:44;;;;;;;17.30;15.52;;;18.90;99.90;;;;;;4949892;28;90624;-34
2023/07/10 00:11:17;;;;;;;17.45;14.23;;;18.90;99.90;;;;;;4957165;28;90335;-41
2023/07/10 00:13:43;;;;;;;16.77;15.05;;;18.90;99.90;;;;;;4958581;28;89959;-34
2023/07/10 00:16:15;;;;;;;20.98;14.68;;;18.90;99.90;;;;;;4957766;28;88247;-35
2023/07/10 00:18:41;;;;;;;19.48;15.88;;;18.90;99.90;;;;;;4958158;28;88345;-34
2023/07/10 00:21:07;;;;;;;18.65;16.75;;;18.90;99.90;;;;;;4957651;28;90849;-35
2023/07/10 00:23:32;;;;;;;18.02;15.45;;;18.90;99.90;;;;;;4958546;28;90064;-33
2023/07/10 00:25:58;;;;;;;28.85;18.80;;;18.80;99.90;;;;;;4957686;28;88241;-35
2023/07/10 00:28:23;;;;;;;26.65;17.20;;;18.90;99.90;;;;;;4958987;28;88062;-34
2023/07/10 00:30:49;;;;;;;19.15;16.10;;;18.90;99.90;;;;;;4957147;28;90277;-34
2023/07/10 00:33:19;;;;;;;18.40;16.45;;;18.90;99.90;;;;;;4958577;28;89459;-33
2023/07/10 00:35:45;;;;;;;22.73;20.05;;;18.90;99.90;;;;;;4947214;28;88682;-35
2023/07/10 00:38:40;;;;;;;17.92;15.80;;;18.90;99.90;;;;;;4960867;28;87882;-33
2023/07/10 00:41:08;;;;;;;22.60;16.95;;;18.90;99.90;;;;;;4947820;28;90195;-37
2023/07/10 00:43:47;;;;;;;24.38;18.60;;;18.90;99.90;;;;;;4960028;28;89944;-36
2023/07/10 00:46:26;;;;;;;22.98;19.23;;;18.90;99.90;;;;;;4961437;28;89002;-33
2023/07/10 00:48:56;;;;;;;24.55;18.63;;;18.90;99.90;;;;;;4951350;28;89547;-40
2023/07/10 00:51:33;;;;;;;24.92;19.95;;;18.90;99.90;;;;;;4961172;28;90772;-36
2023/07/10 00:54:01;;;;;;;22.87;19.43;;;18.80;99.90;;;;;;4961884;28;90449;-39
2023/07/10 00:56:35;;;;;;;25.53;19.50;;;18.80;99.90;;;;;;4961814;28;89191;-33
2023/07/10 00:59:23;;;;;;;22.60;19.13;;;18.80;99.90;;;;;;4961733;28;89024;-40
2023/07/10 01:02:21;;;;;;;19.92;17.08;;;18.80;99.90;;;;;;4954935;28;90316;-36
2023/07/10 01:04:55;;;;;;;24.67;18.77;;;18.80;99.90;;;;;;4908867;28;90567;-33
2023/07/10 01:07:23;;;;;;;29.25;19.17;;;18.80;99.90;;;;;;4943368;28;89582;-34
2023/07/10 01:10:01;;;;;;;23.50;18.95;;;18.80;99.90;;;;;;4959915;28;89759;-35
2023/07/10 01:12:29;;;;;;;25.88;18.48;;;18.80;99.90;;;;;;4959937;28;91038;-36
2023/07/10 01:14:55;;;;;;;24.50;19.10;;;18.80;99.90;;;;;;4961306;28;90257;-33
2023/07/10 01:17:21;;;;;;;20.70;18.55;;;18.70;99.90;;;;;;4961054;28;87643;-34
2023/07/10 01:19:48;;;;;;;22.67;18.60;;;18.80;99.90;;;;;;4961733;28;88277;-34
2023/07/10 01:22:14;;;;;;;20.88;18.25;;;18.70;99.90;;;;;;4960851;28;89862;-36
2023/07/10 01:24:40;;;;;;;23.67;17.90;;;18.80;99.90;;;;;;4961689;28;89747;-37
2023/07/10 01:27:12;;;;;;;22.15;17.98;;;18.80;99.90;;;;;;4960816;28;91385;-38
2023/07/10 01:29:43;;;;;;;27.92;17.00;;;18.80;99.90;;;;;;4961395;28;88243;-36
2023/07/10 01:32:13;;;;;;;20.88;18.85;;;18.80;99.90;;;;;;4961474;28;90154;-33
2023/07/10 01:34:43;;;;;;;22.67;18.23;;;18.80;99.90;;;;;;4961500;28;91664;-38
2023/07/10 01:37:11;;;;;;;25.25;18.00;;;18.80;99.90;;;;;;4960917;28;87665;-34
2023/07/10 01:39:45;;;;;;;21.92;17.80;;;18.70;99.90;;;;;;4961715;28;88909;-33
2023/07/10 01:42:11;;;;;;;24.50;18.38;;;18.70;99.90;;;;;;4959599;28;90196;-38
2023/07/10 01:44:39;;;;;;;20.75;18.27;;;18.70;99.90;;;;;;4960502;28;90204;-32
2023/07/10 01:47:07;;;;;;;;;;;18.70;99.90;;;;;;4959008;28;90407;-35
2023/07/10 01:49:55;;;;;;;25.35;18.67;;;18.70;99.90;;;;;;4961059;28;90105;-34
2023/07/10 01:52:21;;;;;;;;;;;18.70;99.90;;;;;;4959857;28;90175;-38
2023/07/10 01:54:47;;;;;;;19.52;17.50;;;18.70;99.90;;;;;;4958979;28;90875;-40
2023/07/10 01:57:15;;;;;;;18.52;16.65;;;18.70;99.90;;;;;;4942528;28;92386;-34
2023/07/10 01:59:40;;;;;;;17.57;15.77;;;18.70;99.90;;;;;;4944139;28;89604;-35
2023/07/10 02:02:07;;;;;;;21.75;16.13;;;18.70;99.90;;;;;;4942830;28;91576;-40
2023/07/10 02:04:33;;;;;;;22.17;18.02;;;18.70;99.90;;;;;;4943507;28;90355;-32
2023/07/10 02:06:59;;;;;;;20.45;16.73;;;18.70;99.90;;;;;;4941751;28;90595;-35
2023/07/10 02:09:27;;;;;;;20.05;17.92;;;18.70;99.90;;;;;;4957745;28;89106;-39
2023/07/10 02:11:53;;;;;;;18.30;16.48;;;18.80;99.90;;;;;;4960119;28;90879;-35
2023/07/10 02:14:20;;;;;;;23.13;17.73;;;18.80;99.90;;;;;;4959202;28;89201;-36
2023/07/10 02:16:45;;;;;;;21.38;19.05;;;18.80;99.90;;;;;;4959197;28;89844;-40
2023/07/10 02:19:11;;;;;;;19.73;17.63;;;18.70;99.90;;;;;;4958622;28;90204;-35
2023/07/10 02:21:37;;;;;;;21.13;16.83;;;18.70;99.90;;;;;;4958974;28;90179;-36
2023/07/10 02:24:04;;;;;;;19.33;17.33;;;18.70;99.90;;;;;;4960142;28;89860;-35
2023/07/10 02:26:29;;;;;;;17.08;15.27;;;18.80;99.90;;;;;;4958660;28;89687;-37
2023/07/10 02:28:57;;;;;;;18.90;14.90;;;18.80;99.90;;;;;;4959033;28;88564;-37
2023/07/10 02:31:23;;;;;;;24.83;18.38;;;18.80;99.90;;;;;;4959610;28;90461;-34
2023/07/10 02:33:49;;;;;;;24.02;18.83;;;18.80;99.90;;;;;;4959133;28;89862;-40
2023/07/10 02:36:15;;;;;;;20.60;17.92;;;18.80;99.90;;;;;;4959220;28;89647;-38
2023/07/10 02:38:40;;;;;;;23.42;16.80;;;18.80;99.90;;;;;;4959009;28;88672;-33
2023/07/10 02:41:06;;;;;;;23.65;18.77;;;18.90;99.90;;;;;;4958074;28;89978;-39
2023/07/10 02:43:32;;;;;;;21.90;19.65;;;18.80;99.90;;;;;;4958738;28;90750;-36
2023/07/10 02:45:57;;;;;;;19.02;16.65;;;18.80;99.90;;;;;;4958716;28;91225;-36
2023/07/10 02:48:23;;;;;;;20.85;18.80;;;18.80;99.90;;;;;;4958740;28;88455;-33
2023/07/10 02:50:48;;;;;;;21.52;19.30;;;18.80;99.90;;;;;;4958036;28;90644;-34
2023/07/10 02:53:14;;;;;;;22.02;17.73;;;18.80;99.90;;;;;;4958049;28;89908;-34
2023/07/10 02:55:40;;;;;;;28.98;20.23;;;18.80;99.90;;;;;;4959771;28;88083;-34
2023/07/10 02:58:07;;;;;;;23.85;19.65;;;18.80;99.90;;;;;;4959197;28;89980;-37
2023/07/10 03:00:32;;;;;;;18.95;17.00;;;18.80;99.90;;;;;;4959149;28;90074;-39
2023/07/10 03:02:58;;;;;;;22.63;19.30;;;18.80;99.90;;;;;;4958314;28;89630;-38
2023/07/10 03:05:25;;;;;;;21.73;18.48;;;18.70;99.90;;;;;;4958198;28;89987;-38
2023/07/10 03:07:51;;;;;;;20.73;18.55;;;18.80;99.90;;;;;;4958582;28;88502;-36
2023/07/10 03:10:17;;;;;;;21.48;19.10;;;18.80;99.90;;;;;;4958527;28;89644;-35
2023/07/10 03:12:43;;;;;;;25.33;19.38;;;18.80;99.90;;;;;;4957391;28;89330;-40
2023/07/10 03:15:09;;;;;;;21.23;19.13;;;18.80;99.90;;;;;;4958220;28;89382;-33
2023/07/10 03:17:35;;;;;;;23.00;20.52;;;18.70;99.90;;;;;;4958125;28;89581;-33
2023/07/10 03:20:01;;;;;;;23.48;20.95;;;18.80;99.90;;;;;;4958194;28;89845;-36
2023/07/10 03:22:27;;;;;;;23.05;18.98;;;18.80;99.90;;;;;;4955175;28;89953;-34
2023/07/10 03:24:53;;;;;;;27.63;20.25;;;18.80;99.90;;;;;;4949366;28;88695;-34
2023/07/10 03:27:19;;;;;;;23.60;21.10;;;18.70;99.90;;;;;;4945402;28;88489;-38
2023/07/10 03:29:44;;;;;;;26.10;20.30;;;18.70;99.90;;;;;;4958380;28;90614;-36
2023/07/10 03:32:10;;;;;;;24.42;21.80;;;18.70;99.90;;;;;;4957499;28;91063;-34
2023/07/10 03:34:36;;;;;;;28.83;23.83;;;18.70;99.90;;;;;;4958772;28;90857;-32
2023/07/10 03:37:02;;;;;;;25.08;20.23;;;18.70;99.90;;;;;;4957465;28;89820;-40
2023/07/10 03:39:28;;;;;;;31.88;23.50;;;18.80;99.90;;;;;;4958099;28;90031;-39
2023/07/10 03:41:54;;;;;;;27.15;22.27;;;18.80;99.90;;;;;;4957243;28;90475;-37
2023/07/10 03:44:20;;;;;;;24.13;21.70;;;18.70;99.90;;;;;;4947596;28;90021;-32
2023/07/10 03:46:45;;;;;;;32.60;24.10;;;18.80;99.90;;;;;;4956397;28;89962;-34
2023/07/10 03:49:11;;;;;;;31.58;24.88;;;18.80;99.90;;;;;;4948396;28;90689;-32
2023/07/10 03:51:37;;;;;;;27.73;22.98;;;18.80;99.90;;;;;;4944609;28;89693;-32
2023/07/10 03:54:02;;;;;;;29.77;24.10;;;18.80;99.90;;;;;;4956652;28;90196;-35
2023/07/10 03:56:28;;;;;;;32.38;23.90;;;18.80;99.90;;;;;;4943036;28;90705;-34
2023/07/10 03:58:54;;;;;;;25.17;22.35;;;18.80;99.90;;;;;;4938747;28;89516;-36
2023/07/10 04:01:19;;;;;;;29.10;23.67;;;18.80;99.90;;;;;;4953485;28;90334;-40
2023/07/10 04:03:45;;;;;;;28.02;25.02;;;18.80;99.90;;;;;;4958660;28;89499;-38
2023/07/10 04:06:13;;;;;;;26.98;23.38;;;18.80;99.90;;;;;;4941835;28;89366;-39
2023/07/10 04:08:41;;;;;;;25.58;23.08;;;18.70;99.90;;;;;;4947483;28;90545;-33
2023/07/10 04:11:12;;;;;;;26.67;22.02;;;18.70;99.90;;;;;;4943833;28;89017;-37
2023/07/10 04:13:38;;;;;;;25.95;22.15;;;18.80;99.90;;;;;;4958389;28;89565;-40
2023/07/10 04:16:09;;;;;;;25.45;22.88;;;18.80;99.90;;;;;;4945781;28;88552;-34
2023/07/10 04:18:37;;;;;;;26.83;21.80;;;18.80;99.90;;;;;;4958206;28;90825;-38
2023/07/10 04:21:06;;;;;;;28.90;22.23;;;18.70;99.90;;;;;;4956637;28;90765;-36
2023/07/10 04:23:32;;;;;;;32.40;26.15;;;18.70;99.90;;;;;;4957896;28;91392;-37
2023/07/10 04:25:58;;;;;;;25.60;21.50;;;18.80;99.90;;;;;;4957855;28;89031;-35
2023/07/10 04:28:24;;;;;;;27.90;23.13;;;18.70;99.90;;;;;;4957847;28;90280;-33
2023/07/10 04:30:51;;;;;;;27.27;23.92;;;18.70;99.90;;;;;;4955613;28;90242;-38
2023/07/10 04:33:18;;;;;;;26.73;24.02;;;18.80;99.90;;;;;;4956858;28;90044;-41
2023/07/10 04:35:50;;;;;;;27.77;23.02;;;18.80;99.90;;;;;;4956264;28;89502;-33
2023/07/10 04:38:16;;;;;;;31.20;22.05;;;18.80;99.90;;;;;;4957233;28;90287;-36
2023/07/10 04:40:57;;;;;;;26.98;22.50;;;18.80;99.90;;;;;;4956586;28;93311;-34
2023/07/10 04:43:28;;;;;;;26.45;23.27;;;18.80;99.90;;;;;;4955962;28;89977;-39
2023/07/10 04:45:55;;;;;;;28.58;22.00;;;18.80;99.90;;;;;;4955280;28;89878;-34
2023/07/10 04:48:22;;;;;;;33.40;25.05;;;18.80;99.90;;;;;;4956874;28;90178;-35
2023/07/10 04:50:48;;;;;;;23.48;21.10;;;18.80;99.90;;;;;;4957627;28;89783;-35
2023/07/10 04:53:15;;;;;;;26.48;22.77;;;18.80;99.90;;;;;;4957399;28;89923;-37
2023/07/10 04:55:41;;;;;;;31.30;25.23;;;18.80;99.90;;;;;;4949335;28;89476;-36
2023/07/10 04:58:07;;;;;;;27.65;22.33;;;18.90;99.90;;;;;;4952754;28;90022;-34
2023/07/10 05:00:33;;;;;;;24.48;20.88;;;18.80;99.90;;;;;;4946546;28;90572;-38
2023/07/10 05:02:59;;;;;;;26.85;24.10;;;18.80;99.90;;;;;;4951155;28;90353;-33
2023/07/10 05:05:25;;;;;;;28.23;22.90;;;18.90;99.90;;;;;;4954374;28;89916;-33
2023/07/10 05:07:50;;;;;;;26.60;21.65;;;18.90;99.90;;;;;;4952644;28;90384;-34
2023/07/10 05:10:16;;;;;;;21.70;18.92;;;18.90;99.90;;;;;;4956837;28;90699;-35
2023/07/10 05:12:42;;;;;;;25.88;23.23;;;18.90;99.90;;;;;;4954774;28;90507;-40
2023/07/10 05:15:08;;;;;;;22.48;20.10;;;18.80;99.90;;;;;;4938260;28;88105;-37
2023/07/10 05:17:33;;;;;;;24.98;22.27;;;18.80;99.90;;;;;;4937443;28;90399;-35
2023/07/10 05:19:59;;;;;;;24.90;21.85;;;18.80;99.90;;;;;;4938044;28;89699;-40
2023/07/10 05:22:25;;;;;;;22.73;20.42;;;18.70;99.90;;;;;;4940755;28;89654;-38
2023/07/10 05:24:51;;;;;;;25.38;22.73;;;18.70;99.90;;;;;;4960834;28;88111;-36
2023/07/10 05:27:17;;;;;;;27.40;23.58;;;18.80;99.90;;;;;;4960304;28;89969;-33
2023/07/10 05:29:42;;;;;;;24.13;20.40;;;18.80;99.90;;;;;;4949118;28;88908;-41
2023/07/10 05:32:08;;;;;;;24.20;21.27;;;18.70;99.90;;;;;;4946619;28;90096;-33
2023/07/10 05:34:34;;;;;;;21.15;18.80;;;18.70;99.90;;;;;;4947162;28;89368;-38
2023/07/10 05:36:59;;;;;;;24.17;19.52;;;18.70;99.90;;;;;;4949391;28;91937;-36
2023/07/10 05:39:27;;;;;;;24.80;21.30;;;18.70;99.90;;;;;;4949270;28;90789;-37
2023/07/10 05:41:53;;;;;;;20.95;17.33;;;18.70;99.90;;;;;;4948371;28;89602;-33
2023/07/10 05:44:18;;;;;;;26.75;19.98;;;18.70;99.90;;;;;;4943327;28;88938;-36
2023/07/10 05:46:44;;;;;;;22.42;18.52;;;18.70;99.90;;;;;;4946998;28;90253;-35
2023/07/10 05:49:09;;;;;;;23.88;21.50;;;18.80;99.90;;;;;;4949971;28;89754;-34
2023/07/10 05:51:35;;;;;;;25.73;20.77;;;18.80;99.90;;;;;;4948947;28;90005;-35
2023/07/10 05:54:02;;;;;;;27.65;21.05;;;18.90;99.90;;;;;;4950540;28;89050;-35
2023/07/10 05:56:27;;;;;;;23.88;18.48;;;18.90;99.90;;;;;;4942336;28;90545;-37
2023/07/10 05:58:53;;;;;;;21.38;19.08;;;18.90;99.90;;;;;;4946645;28;90457;-37
2023/07/10 06:01:18;;;;;;;20.70;18.63;;;18.90;99.90;;;;;;4957025;28;90491;-40
2023/07/10 06:03:45;;;;;;;21.05;18.85;;;18.80;99.90;;;;;;4957919;28;89052;-36
2023/07/10 06:06:10;;;;;;;26.42;19.70;;;18.90;99.90;;;;;;4953096;28;90150;-42
2023/07/10 06:08:37;;;;;;;23.23;20.08;;;18.90;99.90;;;;;;4947765;28;89781;-36
2023/07/10 06:11:04;;;;;;;19.88;17.50;;;19.00;99.90;;;;;;4956803;28;90545;-35
2023/07/10 06:13:30;;;;;;;20.13;16.15;;;18.90;99.90;;;;;;4957714;28;89549;-38
2023/07/10 06:15:58;;;;;;;15.52;14.05;;;19.00;99.90;;;;;;4945036;28;90823;-38
2023/07/10 06:18:25;;;;;;;17.20;15.43;;;19.00;99.90;;;;;;4949422;28;90035;-33
2023/07/10 06:20:58;;;;;;;15.70;13.68;;;19.00;99.90;;;;;;4936876;28;92595;-42
2023/07/10 06:23:25;;;;;;;16.55;14.00;;;19.10;99.90;;;;;;4939045;28;89332;-38
2023/07/10 06:25:51;;;;;;;14.82;12.90;;;19.10;99.90;;;;;;4939275;28;89854;-35
2023/07/10 06:28:17;;;;;;;15.57;10.45;;;19.10;99.90;;;;;;4947984;28;89757;-40
2023/07/10 06:30:45;;;;;;;13.43;10.77;;;19.00;99.90;;;;;;4944807;28;90201;-33
2023/07/10 06:33:11;;;;;;;11.77;10.65;;;19.00;99.90;;;;;;4955933;28;89654;-38
2023/07/10 06:35:37;;;;;;;12.77;10.63;;;19.00;99.90;;;;;;4945003;28;90139;-35
2023/07/10 06:38:02;;;;;;;11.75;8.77;;;19.00;99.90;;;;;;4946200;28;90980;-39
2023/07/10 06:40:28;;;;;;;9.05;8.13;;;19.00;99.90;;;;;;4944501;28;89878;-35
2023/07/10 06:42:53;;;;;;;9.57;7.72;;;19.00;99.90;;;;;;4947462;28;89381;-39
2023/07/10 06:45:19;;;;;;;9.13;8.25;;;19.00;99.90;;;;;;4940742;28;90878;-40
2023/07/10 06:47:45;;;;;;;10.27;8.35;;;19.00;99.90;;;;;;4939651;28;90487;-34
2023/07/10 06:50:13;;;;;;;8.25;7.18;;;19.10;99.90;;;;;;4941015;28;90384;-39
2023/07/10 06:52:41;;;;;;;10.90;7.82;;;19.10;99.90;;;;;;4939681;28;88000;-35
2023/07/10 06:55:10;;;;;;;10.95;5.57;;;19.10;99.90;;;;;;4954586;28;89140;-40
2023/07/10 06:57:35;;;;;;;10.45;5.30;;;19.20;99.90;;;;;;4957446;28;90202;-33
2023/07/10 07:00:04;;;;;;;7.28;5.75;;;19.10;99.90;;;;;;4956674;28;89788;-34
2023/07/10 07:02:29;;;;;;;7.75;5.45;;;19.20;99.90;;;;;;4957727;28;87781;-36
2023/07/10 07:04:55;;;;;;;9.80;5.45;;;19.30;99.90;;;;;;4966521;28;91144;-36
2023/07/10 07:07:20;;;;;;;5.85;4.53;;;19.40;99.90;;;;;;4949886;28;89690;-33
2023/07/10 07:09:46;;;;;;;5.95;4.88;;;19.50;99.90;;;;;;4944031;28;89856;-38
2023/07/10 07:12:12;;;;;;;7.15;4.03;;;19.60;99.90;;;;;;4948521;28;88020;-36
2023/07/10 07:14:37;;;;;;;8.10;4.80;;;19.80;99.90;;;;;;4953512;28;89786;-37
2023/07/10 07:17:05;;;;;;;5.25;4.20;;;20.20;99.90;;;;;;4949823;28;89629;-33
2023/07/10 07:19:31;;;;;;;6.23;4.73;;;20.50;99.90;;;;;;4947455;28;90429;-36
2023/07/10 07:21:58;;;;;;;6.47;4.00;;;20.50;99.90;;;;;;4948017;28;88447;-39
2023/07/10 07:24:24;;;;;;;5.60;3.88;;;21.00;99.90;;;;;;4946312;28;90412;-36
2023/07/10 07:26:49;;;;;;;6.93;4.03;;;21.40;99.90;;;;;;4948153;28;89787;-33
2023/07/10 07:29:15;;;;;;;6.63;4.45;;;21.50;99.90;;;;;;4942966;28;89974;-34
2023/07/10 07:31:41;;;;;;;5.65;3.67;;;21.40;99.90;;;;;;4941385;28;89516;-34
2023/07/10 07:34:06;;;;;;;5.85;3.58;;;21.60;99.90;;;;;;4943541;28;90489;-36
2023/07/10 07:36:34;;;;;;;8.65;4.43;;;21.50;99.90;;;;;;4941077;28;90906;-40
2023/07/10 07:39:03;;;;;;;8.23;4.38;;;21.90;99.90;;;;;;4945782;28;90505;-36
2023/07/10 07:41:28;;;;;;;4.10;3.25;;;22.20;99.90;;;;;;4947532;28;88410;-35
2023/07/10 07:43:54;;;;;;;9.52;3.30;;;22.60;99.90;;;;;;4943048;28;90629;-38
2023/07/10 07:46:20;;;;;;;7.82;3.28;;;22.80;99.90;;;;;;4941014;28;89723;-37
2023/07/10 07:48:45;;;;;;;6.82;3.17;;;23.10;99.90;;;;;;4943042;28;89678;-39
2023/07/10 07:51:11;;;;;;;5.60;2.55;;;22.90;99.90;;;;;;4945101;28;88503;-39
2023/07/10 07:53:41;;;;;;;6.03;3.38;;;23.20;99.90;;;;;;4947917;28;90145;-33
2023/07/10 07:56:06;;;;;;;5.35;3.28;;;23.30;99.90;;;;;;4956281;28;89382;-36
2023/07/10 07:58:32;;;;;;;8.70;3.78;;;23.50;99.90;;;;;;4940043;28;89821;-43
2023/07/10 08:00:59;;;;;;;7.45;2.30;;;23.70;99.90;;;;;;4988576;22;90588;-35
2023/07/10 08:03:25;;;;;;;6.33;3.50;;;23.90;99.90;;;;;;4961956;28;89773;-40
2023/07/10 08:05:52;;;;;;;6.43;3.60;;;24.10;99.90;;;;;;4970895;28;89183;-34
2023/07/10 08:08:18;;;;;;;5.35;3.05;;;24.00;99.90;;;;;;4973647;28;89884;-35
2023/07/10 08:10:47;;;;;;;4.50;3.05;;;24.00;99.90;;;;;;4963241;28;90260;-35
2023/07/10 08:13:14;;;;;;;4.90;3.42;;;23.80;99.90;;;;;;4962576;28;90332;-36
2023/07/10 08:15:40;;;;;;;8.68;2.55;;;24.20;99.90;;;;;;4975720;28;89267;-37
2023/07/10 08:18:06;;;;;;;9.02;2.97;;;24.60;99.90;;;;;;4976841;28;90034;-40
2023/07/10 08:20:32;;;;;;;6.30;2.90;;;24.70;99.90;;;;;;4962343;28;89654;-37
2023/07/10 08:22:58;;;;;;;4.47;2.53;;;24.90;99.90;;;;;;4964326;28;90302;-37
2023/07/10 08:25:24;;;;;;;6.97;3.10;;;24.70;99.90;;;;;;4959732;28;92703;-35
2023/07/10 08:27:50;;;;;;;7.10;2.60;;;24.50;99.90;;;;;;4956808;28;91031;-41
2023/07/10 08:30:16;;;;;;;9.90;3.80;;;24.70;99.90;;;;;;4957413;28;89076;-33
2023/07/10 08:32:42;;;;;;;9.60;3.20;;;24.20;99.90;;;;;;4957033;28;90135;-39
2023/07/10 08:35:08;;;;;;;3.90;2.95;;;23.80;99.90;;;;;;4958187;28;90511;-43
2023/07/10 08:37:36;;;;;;;4.57;2.67;;;24.30;99.90;;;;;;4975896;28;90035;-37
2023/07/10 08:40:06;;;;;;;6.20;2.47;;;24.60;99.90;;;;;;4975916;28;88858;-33
2023/07/10 08:42:33;;;;;;;4.20;2.60;;;24.50;99.90;;;;;;4975893;28;90689;-37
2023/07/10 08:45:00;;;;;;;5.70;2.53;;;24.90;99.90;;;;;;4975631;28;90218;-40
2023/07/10 08:47:36;;;;;;;6.00;2.70;;;24.90;99.90;;;;;;4976109;28;89679;-36
2023/07/10 08:50:22;;;;;;;7.90;2.90;;;24.90;99.90;;;;;;4975076;28;89660;-37
2023/07/10 08:53:00;;;;;;;4.97;2.97;;;25.00;99.90;;;;;;4975234;28;90279;-36
2023/07/10 08:55:36;;;;;;;5.32;2.97;;;25.00;99.90;;;;;;4962717;28;90032;-36
2023/07/10 08:58:02;;;;;;;5.95;2.47;;;24.80;99.90;;;;;;4965469;28;90472;-37
2023/07/10 09:00:35;;;;;;;6.35;3.65;;;24.50;99.90;;;;;;4978832;28;89538;-37
2023/07/10 09:03:17;;;;;;;4.68;2.60;;;24.40;99.90;;;;;;4979184;28;90461;-37
2023/07/10 09:05:51;;;;;;;4.65;3.03;;;24.50;99.90;;;;;;4979512;28;89810;-39
2023/07/10 09:08:18;;;;;;;14.68;3.58;;;24.60;99.90;;;;;;4979033;28;89537;-34
2023/07/10 09:10:51;;;;;;;4.95;2.83;;;24.80;99.90;;;;;;4979273;28;88317;-39
2023/07/10 09:13:40;;;;;;;3.95;2.45;;;24.90;99.90;;;;;;4967390;28;90332;-34
2023/07/10 09:16:20;;;;;;;5.85;3.03;;;24.10;99.90;;;;;;4978617;28;90924;-35
2023/07/10 09:18:55;;;;;;;5.00;3.08;;;24.30;99.90;;;;;;4979819;28;91266;-36
2023/07/10 09:21:29;;;;;;;3.88;2.45;;;24.10;99.90;;;;;;4979427;28;88837;-34
2023/07/10 09:23:55;;;;;;;6.55;3.20;;;24.70;99.90;;;;;;4972875;28;90399;-38
2023/07/10 09:26:26;;;;;;;8.57;3.45;;;24.70;99.90;;;;;;4971878;28;89748;-37
2023/07/10 09:29:11;;;;;;;5.45;4.00;;;24.50;99.90;;;;;;4968227;28;89505;-34
2023/07/10 09:32:02;;;;;;;6.72;2.85;;;24.40;99.90;;;;;;4967769;28;91214;-36
2023/07/10 09:34:31;;;;;;;4.55;3.00;;;24.90;99.90;;;;;;4968085;28;90647;-34
2023/07/10 09:36:57;;;;;;;4.25;2.47;;;24.80;99.90;;;;;;4970539;28;89760;-36
2023/07/10 09:39:32;;;;;;;5.95;2.60;;;24.50;99.90;;;;;;4974963;28;88824;-34
2023/07/10 09:41:59;;;;;;;7.32;2.83;;;24.50;99.90;;;;;;4969957;28;88156;-36
2023/07/10 09:44:35;;;;;;;4.07;2.47;;;24.80;99.90;;;;;;4975111;28;90336;-37
2023/07/10 09:47:12;;;;;;;7.63;3.03;;;25.30;99.90;;;;;;4970146;28;92319;-37
2023/07/10 09:49:54;;;;;;;6.53;2.80;;;25.10;99.90;;;;;;4974452;28;89552;-38
2023/07/10 09:52:25;;;;;;;8.30;2.88;;;24.40;99.90;;;;;;4978430;28;89102;-35
2023/07/10 09:55:17;;;;;;;3.47;2.45;;;24.60;99.90;;;;;;4974341;28;91410;-36
2023/07/10 09:58:03;;;;;;;6.88;2.60;;;24.50;99.90;;;;;;4971815;28;89229;-38
2023/07/10 10:00:30;;;;;;;8.02;2.97;;;24.30;99.90;;;;;;4978140;28;90403;-34
2023/07/10 10:03:02;;;;;;;8.70;3.38;;;24.30;99.90;;;;;;4978250;28;89505;-37
2023/07/10 10:05:29;;;;;;;7.05;3.08;;;24.10;99.90;;;;;;4978260;28;90479;-38
2023/07/10 10:08:03;;;;;;;4.35;2.42;;;23.90;99.90;;;;;;4964630;28;90689;-38
2023/07/10 10:10:32;;;;;;;5.03;2.58;;;24.00;99.90;;;;;;4968288;28;90242;-35
2023/07/10 10:13:20;;;;;;;6.60;2.72;;;24.00;99.90;;;;;;4959953;28;88462;-40
2023/07/10 10:16:03;;;;;;;;;;;24.00;99.90;;;;;;4960874;28;90109;-33
2023/07/10 10:18:53;;;;;;;3.50;2.17;;;24.30;99.90;;;;;;4968106;28;89547;-37
2023/07/10 10:21:20;;;;;;;11.35;3.15;;;24.20;99.90;;;;;;4968820;28;89502;-37
2023/07/10 10:23:54;;;;;;;8.55;2.78;;;24.50;99.90;;;;;;4973672;28;88921;-40
2023/07/10 10:26:41;;;;;;;7.40;3.33;;;24.30;99.90;;;;;;4971043;28;90271;-37
2023/07/10 10:29:21;;;;;;;9.63;3.70;;;24.50;99.90;;;;;;4972483;28;89563;-41
2023/07/10 10:31:55;;;;;;;9.45;3.78;;;24.50;99.90;;;;;;4966082;28;91167;-38
2023/07/10 10:34:45;;;;;;;10.73;4.00;;;24.70;99.90;;;;;;4974235;28;89859;-41
2023/07/10 10:37:38;;;;;;;8.10;3.40;;;24.80;99.90;;;;;;4967847;28;90321;-42
2023/07/10 10:40:10;;;;;;;4.85;2.95;;;24.80;99.90;;;;;;4966683;28;91255;-35
2023/07/10 10:42:43;;;;;;;7.13;3.80;;;24.70;99.90;;;;;;4970782;28;91120;-36
2023/07/10 10:45:15;;;;;;;6.50;3.67;;;24.60;99.90;;;;;;4969085;28;89542;-36
2023/07/10 10:47:53;;;;;;;6.47;3.33;;;24.40;99.90;;;;;;4972286;28;89929;-37
2023/07/10 10:50:25;;;;;;;;;;;24.30;99.90;;;;;;4967628;28;90356;-34
2023/07/10 10:53:05;;;;;;;3.75;2.50;;;24.40;99.90;;;;;;4973025;28;88692;-38
2023/07/10 10:55:46;;;;;;;6.13;2.47;;;24.50;99.90;;;;;;4964449;28;90092;-35
2023/07/10 10:58:49;;;;;;;6.00;3.67;;;24.70;99.90;;;;;;4964447;28;92648;-42
2023/07/10 11:01:32;;;;;;;6.55;2.95;;;24.70;99.90;;;;;;4969512;28;89626;-39
2023/07/10 11:04:22;;;;;;;6.22;2.67;;;24.90;99.90;;;;;;4977735;28;90527;-40
2023/07/10 11:07:01;;;;;;;5.50;3.35;;;24.90;99.90;;;;;;4976259;28;89922;-41
2023/07/10 11:09:46;;;;;;;4.82;3.08;;;24.90;99.90;;;;;;4972562;28;88599;-37
2023/07/10 11:12:33;;;;;;;8.20;3.10;;;24.60;99.90;;;;;;4977087;28;89418;-39
2023/07/10 11:15:20;;;;;;;4.68;2.75;;;24.50;99.90;;;;;;4977337;28;88516;-39
2023/07/10 11:17:49;;;;;;;11.10;2.85;;;24.50;99.90;;;;;;4974767;28;88708;-36
2023/07/10 11:20:16;;;;;;;5.22;3.03;;;24.40;99.90;;;;;;4972691;28;90118;-40
2023/07/10 11:23:00;;;;;;;9.20;3.53;;;24.30;99.90;;;;;;4976872;28;89770;-36
2023/07/10 11:25:38;;;;;;;6.15;3.33;;;24.40;99.90;;;;;;4977149;28;90243;-34
2023/07/10 11:28:16;;;;;;;;;;;24.60;99.90;;;;;;4977799;28;90447;-35
2023/07/10 11:30:42;;;;;;;3.95;2.35;;;24.60;99.90;;;;;;4977546;28;89146;-36
2023/07/10 11:33:18;;;;;;;5.22;2.63;;;24.60;99.90;;;;;;4976423;28;89374;-39
2023/07/10 11:36:12;;;;;;;10.27;3.05;;;24.70;99.90;;;;;;4958746;28;89958;-35
2023/07/10 11:38:58;;;;;;;3.47;2.40;;;24.50;99.90;;;;;;4974277;28;88665;-36
2023/07/10 11:41:33;;;;;;;10.30;3.45;;;24.40;99.90;;;;;;4965817;28;90302;-36
2023/07/10 11:44:14;;;;;;;7.30;2.80;;;24.30;99.90;;;;;;4975876;28;89542;-37
2023/07/10 11:46:59;;;;;;;7.80;3.35;;;24.30;99.90;;;;;;4977047;28;90123;-40
2023/07/10 11:49:45;;;;;;;3.80;2.92;;;24.20;99.90;;;;;;4967360;28;88117;-33
2023/07/10 11:52:13;;;;;;;12.52;3.25;;;24.10;99.90;;;;;;4973477;28;90816;-38
2023/07/10 11:54:45;;;;;;;8.00;2.33;;;24.30;99.90;;;;;;4975654;28;91235;-35
2023/07/10 11:57:18;;;;;;;4.55;2.47;;;24.30;99.90;;;;;;4976409;28;92223;-36
2023/07/10 11:59:52;;;;;;;3.63;2.35;;;24.00;99.90;;;;;;4959019;28;88911;-36
2023/07/10 12:02:38;;;;;;;4.07;2.40;;;24.00;99.90;;;;;;4972465;28;91629;-40
2023/07/10 12:05:13;;;;;;;6.90;2.92;;;24.00;99.90;;;;;;4959187;28;90681;-38
2023/07/10 12:07:55;;;;;;;6.20;2.83;;;24.00;99.90;;;;;;4975696;28;90375;-37
2023/07/10 12:10:21;;;;;;;4.78;2.63;;;24.10;99.90;;;;;;4977847;28;87935;-35
2023/07/10 12:12:48;;;;;;;5.03;2.88;;;24.20;99.90;;;;;;4974486;28;93153;-35
2023/07/10 12:15:14;;;;;;;5.95;2.17;;;24.20;99.90;;;;;;4965806;28;91606;-34
2023/07/10 12:17:40;;;;;;;4.82;2.28;;;24.10;99.90;;;;;;4976595;28;89173;-36
2023/07/10 12:20:27;;;;;;;4.78;2.15;;;23.90;99.90;;;;;;4979813;28;89667;-40
2023/07/10 12:22:59;;;;;;;5.13;2.50;;;24.00;99.90;;;;;;4976143;28;91401;-35
2023/07/10 12:25:25;;;;;;;4.05;2.33;;;23.90;99.90;;;;;;4978590;28;91535;-35
2023/07/10 12:27:51;;;;;;;4.40;2.25;;;24.00;99.90;;;;;;4960574;28;90044;-36
2023/07/10 12:30:24;;;;;;;8.15;2.78;;;24.10;99.90;;;;;;4961827;28;88697;-38
2023/07/10 12:32:58;;;;;;;4.20;2.50;;;24.20;99.90;;;;;;4982671;28;91171;-35
2023/07/10 12:35:45;;;;;;;4.68;3.22;;;24.30;99.90;;;;;;4985624;28;88183;-35
2023/07/10 12:38:13;;;;;;;6.63;2.45;;;24.40;99.90;;;;;;4978311;28;88904;-34
2023/07/10 12:40:58;;;;;;;;;;;24.60;99.90;;;;;;4993165;28;89182;-33
2023/07/10 12:43:29;;;;;;;4.57;2.60;;;24.50;99.90;;;;;;4998231;28;89731;-35
2023/07/10 12:50:08;;;;;;;2.80;2.10;;;24.40;99.90;;;;;;4991511;28;87905;-34
2023/07/10 12:52:37;;;;;;;4.03;2.53;;;24.60;99.90;;;;;;4981279;28;87760;-37
2023/07/10 12:55:44;;;;;;;7.15;3.00;;;24.80;99.90;;;;;;4982434;28;88357;-34
2023/07/10 12:58:35;;;;;;;4.88;2.13;;;24.70;99.90;;;;;;4994894;28;89140;-34